Time;durP1;ratioP1;P1;durP2;ratioP2;P2;SDS_P1;SDS_P2;PMS_P1;PMS_P2;Temp;Humidity;BMP_temperature;BMP_pressure;BME280_temperature;BME280_humidity;BME280_pressure;Samples;Min_cycle;Max_cycle;Signal;HPM_P1;HPM_P2
2021/08/25 00:02:11;;;;;;;15.37;10.60;;;;;;;20.68;100.00;100366.25;1718532;82;20962;-61
2021/08/25 00:04:41;;;;;;;11.40;10.07;;;;;;;20.72;100.00;100367.36;1719225;82;21010;-61
2021/08/25 00:07:08;;;;;;;11.27;9.47;;;;;;;20.68;100.00;100365.72;1718260;81;21514;-61
2021/08/25 00:09:36;;;;;;;13.77;9.30;;;;;;;20.79;100.00;100366.12;1719414;81;21085;-61
2021/08/25 00:12:05;;;;;;;14.60;9.00;;;;;;;20.79;100.00;100370.62;1718395;82;21801;-60
2021/08/25 00:14:34;;;;;;;10.90;9.27;;;;;;;20.81;100.00;100371.98;1718526;82;21073;-61
2021/08/25 00:17:00;;;;;;;12.23;9.73;;;;;;;21.00;100.00;100366.36;1719959;81;20923;-59
2021/08/25 00:19:27;;;;;;;14.70;9.43;;;;;;;20.97;100.00;100365.52;1719026;81;20977;-60
2021/08/25 00:21:54;;;;;;;12.23;9.30;;;;;;;20.81;100.00;100366.69;1716845;82;21074;-61
2021/08/25 00:24:21;;;;;;;14.83;10.47;;;;;;;20.63;100.00;100371.77;1722545;81;21110;-61
2021/08/25 00:26:48;;;;;;;13.13;9.87;;;;;;;20.60;100.00;100368.28;1720841;81;20978;-60
2021/08/25 00:29:15;;;;;;;12.80;9.23;;;;;;;20.50;100.00;100361.55;1720369;81;20887;-61
2021/08/25 00:31:42;;;;;;;13.77;8.90;;;;;;;20.44;100.00;100355.87;1721189;81;21067;-60
2021/08/25 00:34:09;;;;;;;14.20;9.87;;;;;;;20.44;100.00;100358.52;1718754;82;21029;-59
2021/08/25 00:36:36;;;;;;;11.50;9.70;;;;;;;20.32;100.00;100355.98;1720357;81;21145;-61
2021/08/25 00:39:04;;;;;;;12.17;9.60;;;;;;;20.36;100.00;100354.45;1719566;81;20951;-60
2021/08/25 00:41:31;;;;;;;15.47;9.67;;;;;;;20.21;100.00;100353.45;1722851;81;20988;-61
2021/08/25 00:43:58;;;;;;;14.10;9.83;;;;;;;20.06;100.00;100352.19;1723388;81;21037;-61
2021/08/25 00:46:27;;;;;;;14.10;9.80;;;;;;;20.05;100.00;100351.92;1718261;82;20848;-59
2021/08/25 00:48:53;;;;;;;12.40;10.67;;;;;;;20.08;100.00;100349.32;1718536;82;21135;-61
2021/08/25 00:51:22;;;;;;;15.03;12.50;;;;;;;20.02;100.00;100345.78;1718457;82;20982;-60
2021/08/25 00:53:48;;;;;;;15.43;12.13;;;;;;;20.06;100.00;100344.25;1719174;82;22479;-61
2021/08/25 00:56:15;;;;;;;16.83;14.10;;;;;;;20.05;100.00;100345.83;1718836;82;21023;-60
2021/08/25 00:58:44;;;;;;;13.67;11.10;;;;;;;20.11;100.00;100349.61;1720900;81;21002;-60
2021/08/25 01:01:38;;;;;;;15.03;11.63;;;;;;;20.01;100.00;100347.36;1719928;81;21167;-60
2021/08/25 01:04:38;;;;;;;14.67;11.30;;;;;;;19.92;100.00;100350.39;1728150;82;21539;-59
2021/08/25 01:07:04;;;;;;;12.50;9.57;;;;;;;20.12;100.00;100344.61;1741663;82;21594;-61
2021/08/25 01:09:31;;;;;;;11.80;10.60;;;;;;;20.21;100.00;100342.87;1747232;80;21552;-60
2021/08/25 01:12:00;;;;;;;12.73;10.77;;;;;;;20.24;100.00;100343.70;1746915;80;20995;-60
2021/08/25 01:14:28;;;;;;;13.27;10.37;;;;;;;20.31;100.00;100343.02;1744349;80;21241;-58
2021/08/25 01:16:54;;;;;;;12.70;10.93;;;;;;;20.23;100.00;100339.44;1743906;80;20940;-60
2021/08/25 01:19:20;;;;;;;16.13;10.30;;;;;;;20.33;100.00;100337.73;1743038;81;21098;-60
2021/08/25 01:21:49;;;;;;;13.80;10.77;;;;;;;20.38;100.00;100336.98;1744205;82;21067;-58
2021/08/25 01:24:16;;;;;;;12.47;10.40;;;;;;;20.50;100.00;100335.60;1744570;80;21398;-59
2021/08/25 01:26:46;;;;;;;12.53;10.40;;;;;;;20.26;100.00;100335.78;1744707;82;21924;-58
2021/08/25 01:29:26;;;;;;;13.17;10.77;;;;;;;20.21;100.00;100336.25;1738636;80;21070;-60
2021/08/25 01:31:53;;;;;;;14.63;10.33;;;;;;;20.14;100.00;100338.53;1739641;80;21015;-58
2021/08/25 01:34:20;;;;;;;12.73;10.20;;;;;;;19.95;100.00;100330.59;1742293;82;21074;-59
2021/08/25 01:36:54;;;;;;;14.37;10.63;;;;;;;19.95;100.00;100331.92;1744868;80;20919;-58
2021/08/25 01:39:21;;;;;;;14.03;9.33;;;;;;;19.93;100.00;100331.38;1745024;82;21918;-59
2021/08/25 01:41:49;;;;;;;12.23;9.67;;;;;;;19.84;100.00;100336.78;1742682;82;21500;-60
2021/08/25 01:44:16;;;;;;;14.83;10.43;;;;;;;19.73;100.00;100329.73;1746724;80;21462;-60
2021/08/25 01:46:43;;;;;;;13.53;11.17;;;;;;;19.62;100.00;100336.22;1747771;80;21122;-59
2021/08/25 01:49:13;;;;;;;15.03;12.47;;;;;;;19.63;100.00;100327.23;1744971;80;21532;-59
2021/08/25 01:51:40;;;;;;;17.83;12.03;;;;;;;19.72;100.00;100322.86;1746403;80;21137;-60
2021/08/25 01:54:08;;;;;;;15.03;12.17;;;;;;;19.64;100.00;100323.53;1744627;81;21226;-59
2021/08/25 01:56:34;;;;;;;13.03;10.93;;;;;;;19.56;100.00;100327.88;1744851;81;21122;-56
2021/08/25 01:59:01;;;;;;;17.97;12.60;;;;;;;19.53;100.00;100325.70;1744629;80;21054;-59
2021/08/25 02:01:29;;;;;;;15.40;11.80;;;;;;;19.54;100.00;100322.54;1746289;80;21003;-57
2021/08/25 02:03:58;;;;;;;16.97;12.77;;;;;;;19.27;100.00;100331.61;1738532;80;21332;-58
2021/08/25 02:06:25;;;;;;;16.33;11.40;;;;;;;19.23;100.00;100335.25;1717301;81;21039;-59
2021/08/25 02:08:52;;;;;;;19.27;12.13;;;;;;;18.85;100.00;100343.81;1718779;81;20997;-59
2021/08/25 02:11:19;;;;;;;15.47;11.63;;;;;;;19.10;100.00;100344.28;1719653;82;21335;-57
2021/08/25 02:13:45;;;;;;;18.77;11.80;;;;;;;19.11;100.00;100344.56;1718625;81;21571;-59
2021/08/25 02:16:11;;;;;;;16.53;11.53;;;;;;;19.05;100.00;100344.70;1719217;81;21480;-59
2021/08/25 02:18:38;;;;;;;14.13;10.23;;;;;;;19.07;100.00;100350.04;1721252;81;21448;-59
2021/08/25 02:21:05;;;;;;;16.50;11.43;;;;;;;19.04;100.00;100351.03;1718351;81;20986;-59
2021/08/25 02:23:31;;;;;;;16.07;10.87;;;;;;;18.99;100.00;100343.81;1718018;82;21490;-59
2021/08/25 02:25:58;;;;;;;12.57;9.80;;;;;;;18.99;100.00;100351.74;1718731;81;21461;-59
2021/08/25 02:28:24;;;;;;;13.63;10.13;;;;;;;18.91;100.00;100344.20;1719301;81;21696;-59
2021/08/25 02:30:52;;;;;;;14.57;10.10;;;;;;;18.93;100.00;100346.07;1719399;82;21499;-59
2021/08/25 02:33:18;;;;;;;12.10;9.33;;;;;;;18.78;100.00;100345.78;1719778;81;20939;-57
2021/08/25 02:35:45;;;;;;;13.20;9.80;;;;;;;18.70;100.00;100345.11;1719691;81;21086;-59
2021/08/25 02:38:11;;;;;;;13.47;9.63;;;;;;;18.66;100.00;100339.98;1719097;82;21008;-58
2021/08/25 02:40:38;;;;;;;13.43;9.77;;;;;;;18.63;100.00;100344.41;1719467;81;21163;-60
2021/08/25 02:43:05;;;;;;;12.93;8.97;;;;;;;18.78;100.00;100346.58;1719842;81;21493;-60
2021/08/25 02:45:32;;;;;;;12.93;9.67;;;;;;;18.88;100.00;100345.98;1717636;82;21587;-58
2021/08/25 02:47:58;;;;;;;16.10;9.33;;;;;;;18.78;100.00;100349.22;1718708;82;21062;-60
2021/08/25 02:50:26;;;;;;;14.87;9.37;;;;;;;18.79;100.00;100351.34;1722469;81;20939;-59
2021/08/25 02:52:53;;;;;;;12.57;9.00;;;;;;;18.81;100.00;100355.87;1719835;82;21780;-60
2021/08/25 02:55:19;;;;;;;12.33;9.90;;;;;;;18.75;100.00;100358.13;1719776;81;20970;-58
2021/08/25 02:57:46;;;;;;;12.87;9.70;;;;;;;18.88;100.00;100355.23;1720198;81;21064;-60
2021/08/25 03:00:13;;;;;;;13.20;9.47;;;;;;;18.82;100.00;100364.08;1719160;79;21121;-58
2021/08/25 03:02:40;;;;;;;13.73;9.73;;;;;;;18.86;100.00;100356.77;1660346;82;21083;-59
2021/08/25 03:05:07;;;;;;;14.37;9.50;;;;;;;19.09;100.00;100359.87;1661924;84;21157;-60
2021/08/25 03:07:34;;;;;;;13.67;9.60;;;;;;;19.15;100.00;100362.86;1658870;84;20966;-60
2021/08/25 03:10:01;;;;;;;18.30;10.87;;;;;;;19.26;100.00;100360.41;1658368;85;21307;-60
2021/08/25 03:12:28;;;;;;;24.23;10.30;;;;;;;19.26;100.00;100365.70;1659055;84;21046;-59
2021/08/25 03:14:55;;;;;;;20.80;11.07;;;;;;;19.34;100.00;100372.71;1656710;84;20937;-60
2021/08/25 03:17:23;;;;;;;21.67;10.73;;;;;;;19.32;100.00;100375.30;1658394;84;21506;-58
2021/08/25 03:19:49;;;;;;;16.43;10.50;;;;;;;19.36;100.00;100379.10;1660756;83;21067;-58
2021/08/25 03:22:16;;;;;;;19.13;10.30;;;;;;;19.50;100.00;100371.12;1658730;84;22409;-61
2021/08/25 03:24:43;;;;;;;20.30;10.77;;;;;;;19.64;100.00;100379.07;1657187;84;21102;-60
2021/08/25 03:27:09;;;;;;;18.37;10.07;;;;;;;19.84;100.00;100373.30;1658901;84;20987;-61
2021/08/25 03:29:35;;;;;;;19.97;11.90;;;;;;;19.89;100.00;100371.27;1656232;85;21161;-59
2021/08/25 03:32:03;;;;;;;20.80;12.20;;;;;;;20.14;100.00;100370.30;1660060;84;21058;-60
2021/08/25 03:34:29;;;;;;;17.27;11.07;;;;;;;20.46;100.00;100369.69;1657628;85;21628;-60
2021/08/25 03:36:56;;;;;;;16.07;11.03;;;;;;;20.88;100.00;100371.27;1659151;84;22423;-59
2021/08/25 03:39:22;;;;;;;14.87;10.57;;;;;;;21.40;100.00;100368.62;1659423;84;21041;-60
2021/08/25 03:41:49;;;;;;;15.37;9.63;;;;;;;21.63;100.00;100362.20;1661165;84;21150;-58
2021/08/25 03:44:15;;;;;;;15.53;9.80;;;;;;;21.92;100.00;100359.21;1657529;84;21516;-58
2021/08/25 03:46:42;;;;;;;15.90;9.70;;;;;;;22.19;100.00;100361.79;1658572;85;21090;-60
2021/08/25 03:49:09;;;;;;;15.33;9.30;;;;;;;22.32;100.00;100356.83;1659365;84;21084;-61
2021/08/25 03:51:36;;;;;;;15.30;10.43;;;;;;;22.68;100.00;100356.17;1657887;84;21137;-61
2021/08/25 03:54:03;;;;;;;13.50;9.90;;;;;;;23.11;100.00;100351.00;1660530;84;21221;-58
2021/08/25 03:56:29;;;;;;;19.73;10.37;;;;;;;23.41;100.00;100347.58;1657234;85;20958;-60
2021/08/25 03:58:56;;;;;;;12.70;9.17;;;;;;;24.13;100.00;100346.98;1658920;84;21119;-61
2021/08/25 04:01:23;;;;;;;15.20;9.90;;;;;;;24.65;100.00;100345.72;1658693;85;21029;-61
2021/08/25 04:03:49;;;;;;;15.70;10.03;;;;;;;25.27;100.00;100346.19;1641221;86;21098;-61
2021/08/25 04:06:16;;;;;;;12.80;10.10;;;;;;;26.00;100.00;100345.83;1636940;86;22106;-62
2021/08/25 04:08:42;;;;;;;12.83;9.47;;;;;;;26.70;100.00;100343.38;1636344;86;21665;-61
2021/08/25 04:11:08;;;;;;;14.07;9.67;;;;;;;27.24;100.00;100339.43;1648139;85;21651;-62
2021/08/25 04:13:35;;;;;;;14.73;10.03;;;;;;;27.95;100.00;100335.27;1646357;84;21163;-63
2021/08/25 04:16:04;;;;;;;12.73;9.58;;;;;;;28.59;98.89;100330.78;1653184;85;21018;-62
2021/08/25 04:18:31;;;;;;;13.95;10.08;;;;;;;28.98;87.42;100334.23;1653745;86;21824;-62
2021/08/25 04:20:57;;;;;;;12.82;9.38;;;;;;;29.67;76.85;100332.55;1647204;86;21485;-61
2021/08/25 04:23:24;;;;;;;13.22;8.70;;;;;;;30.24;65.55;100331.84;1650286;86;21147;-60
2021/08/25 04:25:51;;;;;;;12.78;9.75;;;;;;;30.64;60.76;100338.45;1650514;85;21134;-60
2021/08/25 04:28:18;;;;;;;15.10;10.35;;;;;;;31.08;56.84;100334.68;1653034;86;21087;-60
2021/08/25 04:30:45;;;;;;;13.72;9.78;;;;;;;31.65;54.35;100334.41;1645284;86;21174;-59
2021/08/25 04:33:12;;;;;;;15.10;12.63;;;;;;;32.02;49.97;100340.16;1649660;86;21142;-60
2021/08/25 04:35:38;;;;;;;17.10;11.35;;;;;;;32.36;49.19;100337.83;1647468;86;21038;-60
2021/08/25 04:38:05;;;;;;;13.90;11.15;;;;;;;32.62;46.83;100334.98;1649138;86;21029;-61
2021/08/25 04:40:31;;;;;;;21.42;12.37;;;;;;;32.90;46.68;100327.67;1656362;86;21134;-62
2021/08/25 04:42:58;;;;;;;22.17;12.55;;;;;;;33.03;45.04;100326.61;1644733;86;21126;-59
2021/08/25 04:45:24;;;;;;;21.85;11.83;;;;;;;32.81;44.35;100329.11;1647338;86;21409;-61
2021/08/25 04:47:51;;;;;;;17.98;11.53;;;;;;;33.09;43.02;100327.99;1641715;86;21368;-61
2021/08/25 04:50:17;;;;;;;19.73;13.22;;;;;;;33.02;43.16;100326.95;1647357;84;21527;-58
2021/08/25 04:52:44;;;;;;;17.60;11.45;;;;;;;33.21;42.80;100327.23;1649518;86;21046;-59
2021/08/25 04:55:12;;;;;;;19.73;11.97;;;;;;;33.12;43.66;100332.73;1638132;86;21207;-63
2021/08/25 04:57:40;;;;;;;25.85;13.98;;;;;;;33.08;43.74;100330.48;1649735;86;21131;-62
2021/08/25 05:00:08;;;;;;;23.25;14.20;;;;;;;33.02;43.27;100330.44;1651225;86;21010;-60
2021/08/25 05:02:35;;;;;;;22.98;14.75;;;;;;;32.99;42.65;100325.70;1661616;83;21122;-60
2021/08/25 05:05:02;;;;;;;22.60;14.13;;;;;;;32.94;43.72;100329.97;1662929;85;20968;-60
2021/08/25 05:07:29;;;;;;;24.50;14.13;;;;;;;33.33;43.09;100327.27;1664340;84;22120;-59
2021/08/25 05:09:55;;;;;;;18.00;12.05;;;;;;;33.71;41.82;100327.57;1662266;85;20973;-60
2021/08/25 05:12:22;;;;;;;18.85;11.83;;;;;;;33.83;39.84;100327.59;1664697;83;20962;-59
2021/08/25 05:14:48;;;;;;;20.00;13.05;;;;;;;33.88;39.15;100323.88;1666422;83;20995;-60
2021/08/25 05:17:15;;;;;;;16.90;11.88;;;;;;;33.89;38.88;100330.85;1662418;85;20969;-59
2021/08/25 05:19:42;;;;;;;16.77;11.97;;;;;;;33.95;38.93;100329.51;1664987;83;21603;-60
2021/08/25 05:22:09;;;;;;;17.32;11.25;;;;;;;34.19;38.53;100329.29;1666646;83;21018;-61
2021/08/25 05:24:36;;;;;;;16.17;11.22;;;;;;;34.28;38.51;100323.17;1666030;83;21030;-60
2021/08/25 05:27:04;;;;;;;15.65;11.00;;;;;;;34.67;37.87;100327.06;1660309;84;21552;-58
2021/08/25 05:29:30;;;;;;;17.37;11.03;;;;;;;34.88;37.58;100326.08;1660128;85;22240;-59
2021/08/25 05:31:56;;;;;;;17.65;10.60;;;;;;;35.25;36.47;100324.78;1662586;85;21520;-60
2021/08/25 05:34:23;;;;;;;13.93;10.48;;;;;;;35.27;36.17;100320.36;1662010;83;20998;-60
2021/08/25 05:36:49;;;;;;;16.50;10.55;;;;;;;35.46;35.81;100317.77;1665652;83;21065;-59
2021/08/25 05:39:16;;;;;;;19.48;12.50;;;;;;;35.27;36.75;100319.81;1661935;83;21067;-58
2021/08/25 05:41:42;;;;;;;17.45;10.98;;;;;;;35.53;35.63;100319.88;1663793;85;21133;-59
2021/08/25 05:44:09;;;;;;;23.10;11.68;;;;;;;35.64;34.62;100317.44;1663727;85;21178;-60
2021/08/25 05:46:36;;;;;;;14.98;10.20;;;;;;;35.68;34.24;100312.88;1659651;83;21010;-58
2021/08/25 05:49:02;;;;;;;20.43;11.55;;;;;;;35.64;34.52;100313.37;1661242;84;22583;-62
2021/08/25 05:51:28;;;;;;;18.50;11.83;;;;;;;35.47;34.62;100319.34;1660952;85;21022;-60
2021/08/25 05:53:55;;;;;;;16.60;10.68;;;;;;;35.33;35.02;100320.33;1650480;86;21043;-61
2021/08/25 05:56:21;;;;;;;16.55;11.95;;;;;;;34.92;35.69;100322.32;1651755;86;21163;-60
2021/08/25 05:58:48;;;;;;;22.20;14.87;;;;;;;34.84;35.70;100315.92;1650924;86;20901;-59
2021/08/25 06:01:15;;;;;;;20.30;12.70;;;;;;;34.58;36.11;100315.58;1650843;86;21002;-58
2021/08/25 06:03:42;;;;;;;19.02;12.50;;;;;;;34.56;36.83;100316.50;1662107;85;21105;-59
2021/08/25 06:06:14;;;;;;;18.80;12.93;;;;;;;34.51;36.64;100309.41;1663052;85;21030;-59
2021/08/25 06:08:40;;;;;;;21.55;12.73;;;;;;;34.51;37.73;100309.41;1662897;83;22484;-59
2021/08/25 06:11:06;;;;;;;18.52;13.03;;;;;;;34.81;37.31;100309.05;1662529;85;21096;-59
2021/08/25 06:13:33;;;;;;;17.12;11.30;;;;;;;35.17;36.55;100308.70;1661642;85;21066;-59
2021/08/25 06:16:01;;;;;;;16.42;11.48;;;;;;;35.63;35.87;100302.31;1661782;85;21524;-60
2021/08/25 06:18:29;;;;;;;16.37;12.03;;;;;;;36.02;35.08;100305.95;1665523;83;21125;-61
2021/08/25 06:20:56;;;;;;;19.20;11.65;;;;;;;36.24;34.93;100306.62;1659362;85;21562;-61
2021/08/25 06:23:22;;;;;;;14.75;10.88;;;;;;;36.69;34.27;100304.47;1661804;85;21138;-59
2021/08/25 06:25:50;;;;;;;18.90;10.25;;;;;;;36.99;33.56;100300.02;1661915;83;21188;-62
2021/08/25 06:28:16;;;;;;;17.77;10.53;;;;;;;37.20;32.49;100299.62;1661627;85;21035;-61
2021/08/25 06:30:43;;;;;;;23.15;10.98;;;;;;;37.16;32.26;100296.03;1663308;83;21047;-60
2021/08/25 06:33:10;;;;;;;12.33;9.33;;;;;;;37.21;32.71;100290.31;1669039;83;21238;-60
2021/08/25 06:35:38;;;;;;;13.30;9.53;;;;;;;37.61;32.35;100289.60;1667370;83;20915;-60
2021/08/25 06:38:05;;;;;;;16.42;9.65;;;;;;;37.80;32.25;100292.80;1662801;83;21654;-61
2021/08/25 06:40:32;;;;;;;17.52;8.60;;;;;;;37.95;31.95;100293.23;1662697;84;21164;-60
2021/08/25 06:42:59;;;;;;;13.15;7.55;;;;;;;38.15;31.38;100292.53;1664122;83;21057;-61
2021/08/25 06:45:27;;;;;;;11.40;7.30;;;;;;;37.87;31.15;100299.13;1661374;83;22262;-59
2021/08/25 06:47:53;;;;;;;12.07;7.42;;;;;;;37.56;31.60;100296.72;1661374;83;20977;-61
2021/08/25 06:50:21;;;;;;;12.55;7.47;;;;;;;37.47;31.39;100299.70;1661327;85;21295;-61
2021/08/25 06:52:48;;;;;;;11.55;7.28;;;;;;;37.39;31.47;100298.77;1661046;83;21504;-59
2021/08/25 06:55:15;;;;;;;10.65;7.20;;;;;;;37.43;31.97;100297.47;1661930;85;21602;-61
2021/08/25 06:57:41;;;;;;;10.65;7.45;;;;;;;37.35;31.45;100300.63;1660380;85;21164;-59
2021/08/25 07:00:09;;;;;;;10.82;6.05;;;;;;;37.26;31.96;100294.66;1661284;83;21029;-62
2021/08/25 07:02:35;;;;;;;10.95;5.70;;;;;;;37.33;31.95;100291.28;1663997;83;21504;-61
2021/08/25 07:05:05;;;;;;;9.60;6.25;;;;;;;37.50;31.41;100294.30;1662714;83;21586;-61
2021/08/25 07:07:34;;;;;;;8.30;5.30;;;;;;;37.72;30.92;100290.55;1662802;83;21057;-59
2021/08/25 07:10:01;;;;;;;8.63;5.60;;;;;;;37.63;31.19;100288.68;1662399;85;21174;-62
2021/08/25 07:12:27;;;;;;;8.33;5.50;;;;;;;37.67;30.82;100294.37;1663646;83;21014;-62
2021/08/25 07:14:54;;;;;;;8.05;5.50;;;;;;;37.82;30.62;100284.48;1664543;83;21075;-62
2021/08/25 07:17:21;;;;;;;7.40;5.10;;;;;;;37.84;31.10;100290.33;1661778;85;21105;-62
2021/08/25 07:19:48;;;;;;;13.00;5.80;;;;;;;38.14;30.82;100288.24;1663073;83;21025;-59
2021/08/25 07:22:15;;;;;;;8.60;5.62;;;;;;;38.31;30.15;100281.47;1662225;85;22457;-63
2021/08/25 07:24:41;;;;;;;8.28;5.28;;;;;;;38.48;29.96;100279.55;1662490;84;21026;-63
2021/08/25 07:27:08;;;;;;;7.83;4.90;;;;;;;38.64;29.85;100281.50;1662024;85;21091;-64
2021/08/25 07:29:35;;;;;;;7.62;5.35;;;;;;;38.84;29.33;100278.03;1664184;83;21077;-63
2021/08/25 07:32:01;;;;;;;7.00;5.37;;;;;;;38.97;28.87;100279.89;1661809;85;21133;-62
2021/08/25 07:34:28;;;;;;;8.18;6.08;;;;;;;39.16;28.77;100278.31;1663920;83;22429;-59
2021/08/25 07:36:55;;;;;;;8.18;5.30;;;;;;;39.13;28.77;100279.64;1660768;83;21511;-63
2021/08/25 07:39:22;;;;;;;8.90;5.58;;;;;;;39.49;28.29;100279.97;1662099;83;21009;-63
2021/08/25 07:41:48;;;;;;;7.17;5.20;;;;;;;39.65;27.76;100279.09;1662398;85;21042;-64
2021/08/25 07:44:15;;;;;;;8.40;5.75;;;;;;;39.82;27.68;100279.83;1662637;83;21003;-63
2021/08/25 07:46:42;;;;;;;9.20;5.85;;;;;;;40.06;26.93;100282.48;1662870;83;21170;-60
2021/08/25 07:49:08;;;;;;;8.60;5.60;;;;;;;39.93;27.04;100274.44;1667933;83;21027;-62
2021/08/25 07:51:35;;;;;;;10.48;5.53;;;;;;;39.95;27.32;100274.82;1674798;83;21093;-64
2021/08/25 07:54:03;;;;;;;10.13;5.72;;;;;;;39.92;26.53;100267.98;1681012;84;21540;-61
2021/08/25 07:56:31;;;;;;;9.38;5.53;;;;;;;39.71;27.06;100274.11;1647936;85;21110;-63
2021/08/25 07:58:57;;;;;;;9.80;5.90;;;;;;;39.57;27.85;100271.45;1681998;83;21801;-62
2021/08/25 08:01:24;;;;;;;11.10;5.72;;;;;;;39.88;27.55;100275.56;1685468;83;22476;-63
2021/08/25 08:03:51;;;;;;;14.93;6.28;;;;;;;39.97;27.14;100275.23;1683409;84;21152;-63
2021/08/25 08:06:19;;;;;;;12.28;6.33;;;;;;;39.44;27.28;100264.75;1683573;83;21164;-62
2021/08/25 08:08:46;;;;;;;11.25;6.10;;;;;;;38.96;27.69;100263.34;1679675;84;21030;-60
2021/08/25 08:11:13;;;;;;;13.28;6.28;;;;;;;38.70;28.35;100256.05;1680157;83;21161;-63
2021/08/25 08:13:40;;;;;;;10.90;5.83;;;;;;;38.57;28.79;100258.84;1674014;83;21254;-59
2021/08/25 08:16:07;;;;;;;10.85;6.00;;;;;;;38.65;28.80;100257.18;1682043;84;21081;-63
2021/08/25 08:18:41;;;;;;;11.15;5.40;;;;;;;38.67;29.07;100249.98;1665512;83;21006;-63
2021/08/25 08:21:03;;;;;;;10.45;5.33;;;;;;;38.66;28.53;100253.29;1665085;83;20938;-61
2021/08/25 08:23:31;;;;;;;9.75;4.30;;;;;;;38.66;27.79;100251.93;1664611;83;21157;-62
2021/08/25 08:25:58;;;;;;;9.08;5.42;;;;;;;38.79;27.13;100253.83;1678015;83;20969;-62
2021/08/25 08:28:25;;;;;;;7.83;4.80;;;;;;;38.83;27.28;100253.31;1677685;83;21081;-62
2021/08/25 08:30:51;;;;;;;6.70;4.42;;;;;;;39.01;27.02;100251.31;1675214;84;21036;-59
2021/08/25 08:33:18;;;;;;;6.65;3.80;;;;;;;39.46;26.48;100243.31;1675181;84;21144;-62
2021/08/25 08:35:44;;;;;;;6.85;3.90;;;;;;;39.67;26.39;100248.14;1671254;84;21872;-61
2021/08/25 08:38:11;;;;;;;6.15;4.33;;;;;;;39.54;25.88;100238.69;1674483;83;21113;-62
2021/08/25 08:40:37;;;;;;;7.75;3.42;;;;;;;39.56;25.58;100236.38;1674631;83;21018;-61
2021/08/25 08:43:06;;;;;;;5.50;3.90;;;;;;;40.00;25.33;100233.50;1677105;84;21075;-62
2021/08/25 08:45:36;;;;;;;8.25;3.20;;;;;;;40.18;25.06;100225.41;1678684;84;21085;-62
2021/08/25 08:48:03;;;;;;;4.35;2.92;;;;;;;40.41;24.38;100229.77;1645158;84;22501;-62
2021/08/25 08:50:29;;;;;;;4.17;3.15;;;;;;;40.23;23.96;100226.39;1677932;83;21504;-61
2021/08/25 08:52:56;;;;;;;5.83;3.55;;;;;;;40.13;23.38;100218.97;1673046;83;21086;-57
2021/08/25 08:55:23;;;;;;;5.15;3.62;;;;;;;39.88;23.36;100218.83;1683405;83;21037;-62
2021/08/25 08:57:50;;;;;;;3.85;2.90;;;;;;;39.13;24.02;100216.35;1683266;83;21149;-62
2021/08/25 09:00:17;;;;;;;5.17;3.15;;;;;;;39.02;24.44;100216.07;1672527;84;21168;-62
2021/08/25 09:02:45;;;;;;;5.12;3.90;;;;;;;38.99;24.71;100215.48;1675303;83;21920;-63
2021/08/25 09:05:27;;;;;;;5.15;3.90;;;;;;;38.98;24.05;100207.08;1650764;86;21079;-61
2021/08/25 09:07:58;;;;;;;4.87;3.35;;;;;;;39.14;24.39;100208.98;1651259;86;21043;-63
2021/08/25 09:10:34;;;;;;;4.05;3.40;;;;;;;39.30;24.17;100206.00;1650095;85;36460;-63
2021/08/25 09:13:05;;;;;;;4.65;3.12;;;;;;;39.35;23.18;100199.60;1647374;85;20967;-60
2021/08/25 09:15:41;;;;;;;6.08;3.67;;;;;;;39.00;22.99;100197.96;1639116;86;20960;-62
2021/08/25 09:18:13;;;;;;;6.20;4.05;;;;;;;38.58;22.88;100196.39;1672577;84;21032;-61
2021/08/25 09:20:48;;;;;;;6.37;3.77;;;;;;;38.36;23.38;100193.45;1637913;86;21032;-62
2021/08/25 09:23:22;;;;;;;5.50;3.50;;;;;;;38.26;24.17;100192.71;1639849;86;21079;-61
2021/08/25 09:25:55;;;;;;;4.72;3.25;;;;;;;38.17;24.85;100198.45;1610147;87;21161;-60
2021/08/25 09:28:32;;;;;;;5.45;4.33;;;;;;;38.37;24.58;100197.73;1634623;85;21008;-61
2021/08/25 09:31:08;;;;;;;8.10;7.30;;;;;;;38.63;23.61;100202.86;1631765;84;21171;-61
2021/08/25 09:33:39;;;;;;;7.12;4.90;;;;;;;38.77;23.25;100200.27;1635209;86;21056;-61
2021/08/25 09:36:11;;;;;;;8.03;3.83;;;;;;;38.87;23.62;100202.34;1610004;87;21328;-62
2021/08/25 09:38:39;;;;;;;7.45;3.90;;;;;;;38.80;23.47;100203.64;1635760;85;21159;-63
2021/08/25 09:41:12;;;;;;;5.22;3.80;;;;;;;38.50;24.01;100201.58;1636085;86;21144;-61
2021/08/25 09:43:44;;;;;;;5.40;4.10;;;;;;;38.15;23.91;100199.98;1629122;85;21068;-60
2021/08/25 09:46:18;;;;;;;5.33;4.08;;;;;;;37.91;24.20;100199.31;1634510;86;21215;-59
2021/08/25 09:48:51;;;;;;;6.12;3.90;;;;;;;37.81;24.22;100195.86;1634790;86;21662;-59
2021/08/25 09:51:26;;;;;;;5.67;4.55;;;;;;;37.67;24.26;100197.81;1635880;86;21149;-58
2021/08/25 09:54:07;;;;;;;5.30;4.50;;;;;;;37.50;24.46;100192.31;1632911;85;21129;-58
2021/08/25 09:56:37;;;;;;;7.22;4.20;;;;;;;37.64;24.39;100192.32;1632764;85;21192;-59
2021/08/25 09:59:07;;;;;;;7.78;4.25;;;;;;;37.54;24.99;100188.86;1630307;86;21037;-60
2021/08/25 10:01:35;;;;;;;5.42;4.33;;;;;;;37.69;24.48;100182.47;1631018;87;21099;-59
2021/08/25 10:04:15;;;;;;;5.00;4.35;;;;;;;37.60;24.13;100181.39;1651295;85;21200;-59
2021/08/25 10:06:47;;;;;;;4.97;4.37;;;;;;;37.49;24.79;100179.87;1664164;83;20956;-61
2021/08/25 10:09:15;;;;;;;7.30;4.78;;;;;;;37.35;25.25;100176.91;1665625;83;21025;-61
2021/08/25 10:11:56;;;;;;;6.22;4.58;;;;;;;37.50;24.70;100176.00;1664714;83;21122;-61
2021/08/25 10:14:27;;;;;;;5.87;5.00;;;;;;;37.31;24.64;100176.08;1663605;83;21199;-61
2021/08/25 10:16:56;;;;;;;7.03;4.90;;;;;;;37.12;24.71;100173.47;1636348;85;21104;-61
2021/08/25 10:19:38;;;;;;;5.05;4.55;;;;;;;37.10;25.44;100171.12;1662429;85;20999;-58
2021/08/25 10:22:18;;;;;;;7.70;4.83;;;;;;;37.05;25.12;100167.33;1661994;85;22390;-60
2021/08/25 10:25:02;;;;;;;6.15;4.90;;;;;;;36.83;24.89;100166.20;1666844;83;21083;-58
2021/08/25 10:27:32;;;;;;;5.08;4.58;;;;;;;36.64;24.80;100160.83;1660788;85;21447;-62
2021/08/25 10:30:06;;;;;;;7.47;5.75;;;;;;;36.86;25.74;100156.52;1661859;83;21168;-60
2021/08/25 10:32:58;;;;;;;7.70;5.00;;;;;;;37.15;24.99;100155.08;1664426;83;20958;-63
2021/08/25 10:35:32;;;;;;;9.33;5.85;;;;;;;37.32;24.57;100159.22;1663816;83;22121;-62
2021/08/25 10:38:24;;;;;;;5.97;5.37;;;;;;;37.33;24.66;100155.34;1664728;83;20993;-59
2021/08/25 10:40:55;;;;;;;6.10;5.22;;;;;;;37.41;24.19;100155.65;1659383;85;20926;-61
2021/08/25 10:43:36;;;;;;;6.47;5.50;;;;;;;37.11;24.43;100160.45;1665005;83;21112;-60
2021/08/25 10:46:05;;;;;;;7.45;4.45;;;;;;;36.81;24.46;100158.97;1665739;83;20957;-59
2021/08/25 10:48:45;;;;;;;6.45;5.05;;;;;;;36.32;25.10;100150.13;1662741;83;22060;-59
2021/08/25 10:51:33;;;;;;;7.08;4.78;;;;;;;35.86;25.59;100152.70;1662167;85;21006;-61
2021/08/25 10:54:07;;;;;;;5.80;4.85;;;;;;;35.72;25.52;100152.39;1666449;83;21172;-60
2021/08/25 10:56:43;;;;;;;5.47;4.85;;;;;;;35.48;25.59;100153.41;1665217;83;21166;-60
2021/08/25 10:59:11;;;;;;;7.92;6.10;;;;;;;35.33;25.85;100149.59;1667367;83;21775;-60
2021/08/25 11:01:46;;;;;;;9.45;6.75;;;;;;;35.35;25.99;100151.39;1664955;83;21011;-60
2021/08/25 11:04:22;;;;;;;7.22;6.30;;;;;;;35.46;26.64;100145.64;1661366;83;21105;-61
2021/08/25 11:06:52;;;;;;;5.97;5.37;;;;;;;35.42;26.33;100144.78;1658491;85;21109;-61
2021/08/25 11:09:30;;;;;;;10.65;5.58;;;;;;;35.38;27.94;100142.53;1659934;84;21133;-58
2021/08/25 11:12:11;;;;;;;7.53;5.55;;;;;;;35.53;27.70;100145.80;1659537;84;21013;-61
2021/08/25 11:14:52;;;;;;;10.20;6.00;;;;;;;36.02;26.55;100138.52;1659486;84;21086;-58
2021/08/25 11:17:28;;;;;;;7.33;6.20;;;;;;;36.09;26.15;100135.73;1660022;84;20965;-61
2021/08/25 11:19:57;;;;;;;6.97;5.70;;;;;;;35.94;25.79;100135.42;1659034;85;21577;-61
2021/08/25 11:22:32;;;;;;;6.50;5.90;;;;;;;35.87;26.47;100137.98;1659950;85;21158;-58